Terminal Aerodrome Forecast
Issued by NWS Charleston, WV

Current Version | Previous Version | Text Only | Print | Product List | Glossary Off
Versions: 1 2 3 4 5 6 7 8 9 10 11 12 13 14 15 16 17 18 19 20 21 22 23 24 25 26 27 28

117
FTUS41 KRLX 241740 AAB
TAFBKW
TAF AMD
KBKW 241740Z 2418/2518 14008KT P6SM FEW250
     FM242000 16010G17KT P6SM FEW250
     FM250000 16012G21KT P6SM FEW200
     FM251100 19010G17KT 6SM -SHRA BR OVC025
     FM251400 27012G18KT 4SM SHRA BR OVC015
     FM251700 28012G22KT P6SM BKN040=

USA.gov is the U.S. government's official web portal to all federal, state and local government web resources and services.